Time;durP1;ratioP1;P1;durP2;ratioP2;P2;SDS_P1;SDS_P2;PMS_P1;PMS_P2;Temp;Humidity;BMP_temperature;BMP_pressure;BME280_temperature;BME280_humidity;BME280_pressure;Samples;Min_cycle;Max_cycle;Signal;HPM_P1;HPM_P2
2023/07/29 00:00:19;;;;;;;3.97;2.70;;;;;21.10;96580.00;;;;5069995;28;20206;-72
2023/07/29 00:03:08;;;;;;;3.40;2.17;;;;;21.10;96583.00;;;;5063913;28;20258;-72
2023/07/29 00:05:57;;;;;;;3.47;2.70;;;;;20.70;96571.00;;;;5065795;28;20241;-71
2023/07/29 00:08:48;;;;;;;5.17;2.77;;;;;20.50;96573.00;;;;5065835;28;20208;-72
2023/07/29 00:11:37;;;;;;;2.63;2.43;;;;;20.50;96574.00;;;;5066190;28;20207;-72
2023/07/29 00:14:26;;;;;;;7.23;2.83;;;;;20.30;96582.00;;;;5060607;28;20196;-72
2023/07/29 00:17:15;;;;;;;4.83;3.00;;;;;20.20;96579.00;;;;5057376;28;20197;-72
2023/07/29 00:20:05;;;;;;;3.67;2.67;;;;;20.60;96582.00;;;;5053520;28;20582;-72
2023/07/29 00:22:57;;;;;;;2.67;2.47;;;;;20.70;96577.00;;;;5067625;28;20257;-72
2023/07/29 00:25:48;;;;;;;2.93;2.30;;;;;20.20;96573.00;;;;5060523;28;20196;-72
2023/07/29 00:28:37;;;;;;;3.30;3.00;;;;;20.20;96560.00;;;;5070154;28;20830;-72
2023/07/29 00:31:26;;;;;;;3.10;2.80;;;;;20.50;96566.00;;;;5060071;28;20205;-71
2023/07/29 00:34:19;;;;;;;5.23;2.70;;;;;20.60;96567.00;;;;5063933;28;20207;-72
2023/07/29 00:37:08;;;;;;;4.67;2.73;;;;;20.20;96556.00;;;;5065758;28;20662;-72
2023/07/29 00:39:57;;;;;;;2.93;2.60;;;;;20.30;96549.00;;;;5064578;28;20827;-72
2023/07/29 00:42:48;;;;;;;5.77;2.93;;;;;20.10;96550.00;;;;5063884;28;20603;-71
2023/07/29 00:45:38;;;;;;;3.10;2.80;;;;;19.90;96547.00;;;;5065593;28;20199;-72
2023/07/29 00:48:27;;;;;;;3.33;2.60;;;;;19.60;96548.00;;;;5060402;28;20205;-71
2023/07/29 00:51:16;;;;;;;3.93;2.80;;;;;19.60;96547.00;;;;5067148;28;20192;-71
2023/07/29 00:54:05;;;;;;;3.17;2.57;;;;;20.10;96544.00;;;;5060449;28;20223;-72
2023/07/29 00:56:54;;;;;;;3.77;3.00;;;;;20.10;96542.00;;;;5054211;28;20220;-72
2023/07/29 00:59:45;;;;;;;4.00;2.97;;;;;20.10;96537.00;;;;5050055;28;20886;-71
2023/07/29 01:02:34;;;;;;;3.57;2.40;;;;;19.40;96535.00;;;;5060952;28;21026;-71
2023/07/29 01:05:23;;;;;;;5.30;3.03;;;;;19.40;96524.00;;;;5060145;28;20200;-72
2023/07/29 01:08:18;;;;;;;3.70;3.17;;;;;19.50;96526.00;;;;5061735;28;20196;-71
2023/07/29 01:11:16;;;;;;;3.47;2.93;;;;;19.40;96525.00;;;;5059506;28;20207;-71
2023/07/29 01:14:19;;;;;;;4.73;3.60;;;;;19.20;96531.00;;;;5062521;28;20220;-72
2023/07/29 01:17:14;;;;;;;2.53;2.33;;;;;19.10;96525.00;;;;5063954;28;20584;-72
2023/07/29 01:20:07;;;;;;;5.47;2.50;;;;;19.20;96536.00;;;;5059490;28;20207;-72
2023/07/29 01:22:56;;;;;;;3.70;2.70;;;;;19.30;96525.00;;;;5053348;28;20227;-72
2023/07/29 01:25:46;;;;;;;3.17;2.83;;;;;19.60;96532.00;;;;5060249;28;20579;-71
2023/07/29 01:28:35;;;;;;;3.07;2.33;;;;;19.80;96542.00;;;;5065130;28;20200;-72
2023/07/29 01:31:31;;;;;;;3.87;2.93;;;;;19.80;96524.00;;;;5058809;28;20213;-72
2023/07/29 01:34:33;;;;;;;6.43;3.90;;;;;19.90;96538.00;;;;5061174;28;20832;-72
2023/07/29 01:37:28;;;;;;;4.40;2.97;;;;;20.00;96531.00;;;;5058370;28;20223;-72
2023/07/29 01:40:17;;;;;;;5.47;2.40;;;;;19.70;96527.00;;;;5056617;28;20196;-72
2023/07/29 01:43:08;;;;;;;10.67;3.90;;;;;19.20;96529.00;;;;5055231;28;20691;-72
2023/07/29 01:45:57;;;;;;;7.53;3.10;;;;;19.30;96521.00;;;;5059740;28;20219;-72
2023/07/29 01:48:46;;;;;;;2.73;2.47;;;;;19.30;96514.00;;;;5058424;28;20240;-72
2023/07/29 01:51:35;;;;;;;4.80;3.27;;;;;19.60;96517.00;;;;5064284;28;20757;-72
2023/07/29 01:54:24;;;;;;;3.33;2.80;;;;;19.40;96519.00;;;;5058982;28;20916;-71
2023/07/29 01:57:13;;;;;;;3.73;3.20;;;;;18.90;96512.00;;;;5058424;28;20227;-71
2023/07/29 02:00:04;;;;;;;3.70;2.97;;;;;18.70;96520.00;;;;5056109;28;20570;-72
2023/07/29 02:02:53;;;;;;;3.27;2.83;;;;;18.70;96520.00;;;;5060823;28;20238;-72
2023/07/29 02:05:43;;;;;;;2.77;2.57;;;;;19.30;96527.00;;;;5061501;28;20200;-72
2023/07/29 02:08:32;;;;;;;2.77;2.20;;;;;19.60;96525.00;;;;5065920;28;20601;-72
2023/07/29 02:11:27;;;;;;;3.33;2.77;;;;;19.30;96526.00;;;;5059597;28;20569;-72
2023/07/29 02:14:16;;;;;;;4.97;2.57;;;;;19.20;96522.00;;;;5057704;28;20205;-71
2023/07/29 02:17:06;;;;;;;4.07;2.60;;;;;19.40;96526.00;;;;5058485;28;20590;-72
2023/07/29 02:19:55;;;;;;;6.10;3.20;;;;;19.60;96535.00;;;;5056229;28;20811;-71
2023/07/29 02:22:44;;;;;;;4.70;2.77;;;;;19.70;96533.00;;;;5059587;28;20254;-72
2023/07/29 02:25:35;;;;;;;4.97;2.93;;;;;19.80;96521.00;;;;5063996;28;20201;-72
2023/07/29 02:28:24;;;;;;;3.83;3.53;;;;;19.50;96531.00;;;;5057355;28;20204;-71
2023/07/29 02:31:23;;;;;;;3.97;2.73;;;;;19.10;96533.00;;;;5061586;28;20203;-72
2023/07/29 02:34:13;;;;;;;5.43;3.37;;;;;19.00;96535.00;;;;5060392;28;20577;-72
2023/07/29 02:37:02;;;;;;;3.07;2.63;;;;;19.30;96530.00;;;;5056311;28;20212;-72
2023/07/29 02:39:51;;;;;;;2.43;2.23;;;;;19.50;96529.00;;;;5061497;28;20592;-72
2023/07/29 02:42:40;;;;;;;3.77;2.10;;;;;19.40;96536.00;;;;5065150;28;20220;-72
2023/07/29 02:45:29;;;;;;;5.90;3.07;;;;;19.40;96531.00;;;;5062406;28;20215;-71
2023/07/29 02:48:19;;;;;;;4.40;3.10;;;;;19.10;96525.00;;;;5059789;28;20203;-71
2023/07/29 02:51:09;;;;;;;5.10;2.67;;;;;18.90;96529.00;;;;5056588;28;20721;-72
2023/07/29 02:53:58;;;;;;;4.77;3.00;;;;;19.30;96527.00;;;;5058106;28;20831;-71
2023/07/29 02:56:47;;;;;;;3.23;2.67;;;;;19.60;96532.00;;;;5053938;28;20219;-73
2023/07/29 02:59:36;;;;;;;4.40;3.00;;;;;19.40;96530.00;;;;5062905;28;20204;-71
2023/07/29 03:02:25;;;;;;;3.37;2.57;;;;;19.60;96536.00;;;;5060396;28;20704;-71
2023/07/29 03:05:14;;;;;;;4.20;2.67;;;;;19.90;96544.00;;;;5064328;28;20277;-71
2023/07/29 03:08:05;;;;;;;4.60;2.80;;;;;19.50;96532.00;;;;5063453;28;20208;-71
2023/07/29 03:10:54;;;;;;;5.37;2.70;;;;;19.40;96537.00;;;;5064216;28;20211;-71
2023/07/29 03:13:44;;;;;;;9.17;3.27;;;;;19.20;96537.00;;;;5063311;28;20228;-71
2023/07/29 03:16:33;;;;;;;3.77;2.93;;;;;18.90;96548.00;;;;5072146;28;20722;-71
2023/07/29 03:19:22;;;;;;;3.03;2.73;;;;;18.70;96534.00;;;;5067924;28;20199;-71
2023/07/29 03:22:11;;;;;;;4.43;2.67;;;;;18.80;96529.00;;;;5066926;28;20248;-71
2023/07/29 03:25:01;;;;;;;4.07;2.77;;;;;19.00;96528.00;;;;5060015;28;20211;-71
2023/07/29 03:27:50;;;;;;;5.30;2.90;;;;;19.20;96534.00;;;;5063945;28;20207;-71
2023/07/29 03:30:39;;;;;;;6.53;3.40;;;;;19.20;96532.00;;;;5060997;28;20197;-71
2023/07/29 03:33:28;;;;;;;10.30;2.73;;;;;19.40;96534.00;;;;5064307;28;20593;-73
2023/07/29 03:36:19;;;;;;;6.70;2.90;;;;;19.70;96527.00;;;;5061150;28;20353;-73
2023/07/29 03:39:08;;;;;;;5.27;2.73;;;;;19.70;96528.00;;;;5061792;28;20216;-73
2023/07/29 03:41:59;;;;;;;3.97;3.17;;;;;19.50;96520.00;;;;5056831;28;20204;-73
2023/07/29 03:44:48;;;;;;;3.33;3.00;;;;;19.70;96534.00;;;;5061627;28;20199;-73
2023/07/29 03:47:37;;;;;;;4.33;2.63;;;;;19.60;96540.00;;;;5059094;28;20196;-73
2023/07/29 03:50:26;;;;;;;7.03;3.03;;;;;19.60;96549.00;;;;5063296;28;20239;-72
2023/07/29 03:53:15;;;;;;;4.37;2.37;;;;;19.60;96544.00;;;;5057158;28;20221;-72
2023/07/29 03:56:04;;;;;;;4.73;2.53;;;;;19.30;96547.00;;;;5065217;28;20594;-72
2023/07/29 03:58:58;;;;;;;3.00;2.60;;;;;19.70;96544.00;;;;5057556;28;20193;-73
2023/07/29 04:01:47;;;;;;;5.53;2.97;;;;;19.70;96549.00;;;;5068483;28;20200;-73
2023/07/29 04:04:36;;;;;;;5.87;3.03;;;;;19.90;96559.00;;;;5058159;28;20196;-72
2023/07/29 04:07:25;;;;;;;6.07;2.50;;;;;19.80;96555.00;;;;5064317;28;20205;-73
2023/07/29 04:10:14;;;;;;;3.53;3.17;;;;;19.90;96555.00;;;;5067182;28;20191;-72
2023/07/29 04:13:04;;;;;;;5.23;2.40;;;;;20.10;96557.00;;;;5063228;28;20228;-72
2023/07/29 04:15:54;;;;;;;3.30;2.97;;;;;20.10;96560.00;;;;5058749;28;20211;-72
2023/07/29 04:18:43;;;;;;;3.03;2.30;;;;;20.00;96557.00;;;;5065240;28;20224;-73
2023/07/29 04:21:32;;;;;;;8.53;3.20;;;;;19.40;96556.00;;;;5063516;28;20208;-72
2023/07/29 04:24:23;;;;;;;3.90;3.00;;;;;19.70;96552.00;;;;5064687;28;20205;-72
2023/07/29 04:27:12;;;;;;;3.67;2.67;;;;;19.50;96571.00;;;;5062884;28;20201;-72
2023/07/29 04:30:01;;;;;;;4.03;2.90;;;;;19.60;96574.00;;;;5062945;28;20203;-72
2023/07/29 04:32:51;;;;;;;3.53;2.67;;;;;20.00;96569.00;;;;5061907;28;20231;-72
2023/07/29 04:35:40;;;;;;;3.13;2.43;;;;;20.00;96575.00;;;;5064240;28;20204;-72
2023/07/29 04:38:35;;;;;;;6.27;3.17;;;;;19.90;96588.00;;;;5058075;28;20224;-71
2023/07/29 04:41:24;;;;;;;4.93;2.93;;;;;19.60;96583.00;;;;5058141;28;20204;-71
2023/07/29 04:44:13;;;;;;;7.13;2.80;;;;;19.10;96581.00;;;;5065433;28;20591;-71
2023/07/29 04:47:02;;;;;;;6.53;2.93;;;;;19.30;96576.00;;;;5066992;28;20205;-72
2023/07/29 04:49:53;;;;;;;3.27;2.60;;;;;19.40;96581.00;;;;5063369;28;20205;-71
2023/07/29 04:52:42;;;;;;;3.87;2.23;;;;;19.50;96582.00;;;;5059686;28;20610;-71
2023/07/29 04:55:31;;;;;;;3.77;3.10;;;;;19.30;96585.00;;;;5064082;28;20217;-71
2023/07/29 04:58:20;;;;;;;4.33;3.53;;;;;19.30;96587.00;;;;5055756;28;20235;-71
2023/07/29 05:01:09;;;;;;;4.10;2.83;;;;;19.20;96590.00;;;;5055089;28;20710;-72
2023/07/29 05:03:58;;;;;;;5.20;3.10;;;;;19.20;96595.00;;;;5077034;23;20224;-70
2023/07/29 05:06:48;;;;;;;3.60;2.50;;;;;18.90;96595.00;;;;5044860;28;20211;-72
2023/07/29 05:09:37;;;;;;;3.87;2.70;;;;;19.60;96592.00;;;;5040897;28;20606;-73
2023/07/29 05:12:26;;;;;;;3.43;2.50;;;;;19.60;96593.00;;;;5043094;28;20197;-72
2023/07/29 05:15:16;;;;;;;3.90;3.03;;;;;19.60;96596.00;;;;5036407;28;20215;-72
2023/07/29 05:18:05;;;;;;;2.80;2.53;;;;;19.90;96601.00;;;;5042122;28;20220;-71
2023/07/29 05:20:54;;;;;;;3.47;2.53;;;;;20.10;96598.00;;;;5044006;28;20676;-72
2023/07/29 05:23:44;;;;;;;8.70;2.53;;;;;20.10;96606.00;;;;5043246;28;20699;-71
2023/07/29 05:26:33;;;;;;;5.10;2.47;;;;;20.10;96604.00;;;;5040792;28;20204;-71
2023/07/29 05:29:22;;;;;;;5.40;3.00;;;;;20.30;96609.00;;;;5047086;28;20196;-72
2023/07/29 05:32:11;;;;;;;3.27;2.67;;;;;20.30;96600.00;;;;5039268;28;20217;-71
2023/07/29 05:35:01;;;;;;;2.60;2.33;;;;;20.40;96612.00;;;;5042920;28;20204;-74
2023/07/29 05:37:50;;;;;;;3.27;2.47;;;;;20.30;96599.00;;;;5030630;28;20213;-72
2023/07/29 05:40:41;;;;;;;5.27;2.63;;;;;20.00;96605.00;;;;5035866;28;20240;-72
2023/07/29 05:43:30;;;;;;;7.17;2.43;;;;;20.00;96602.00;;;;5037979;28;20250;-72
2023/07/29 05:46:19;;;;;;;3.10;2.73;;;;;19.80;96611.00;;;;5042850;28;20204;-70
2023/07/29 05:49:08;;;;;;;2.77;2.47;;;;;19.60;96607.00;;;;5042989;28;20201;-73
2023/07/29 05:51:57;;;;;;;4.93;3.00;;;;;19.80;96595.00;;;;5044960;28;20572;-71
2023/07/29 05:54:46;;;;;;;3.97;2.80;;;;;20.00;96598.00;;;;5040533;28;20228;-75
2023/07/29 05:57:36;;;;;;;5.03;2.77;;;;;19.80;96598.00;;;;5036527;28;20563;-72
2023/07/29 06:00:25;;;;;;;7.53;2.80;;;;;19.80;96594.00;;;;5043326;28;20208;-72
2023/07/29 06:03:14;;;;;;;3.17;2.60;;;;;19.80;96594.00;;;;5035904;28;20224;-72
2023/07/29 06:06:03;;;;;;;4.37;3.30;;;;;19.70;96594.00;;;;5045396;28;20204;-71
2023/07/29 06:08:52;;;;;;;5.60;2.70;;;;;19.90;96591.00;;;;5042198;28;20212;-73
2023/07/29 06:11:41;;;;;;;4.97;3.00;;;;;19.80;96586.00;;;;5035134;28;20651;-71
2023/07/29 06:14:32;;;;;;;5.07;3.00;;;;;20.10;96590.00;;;;5033960;28;20220;-74
2023/07/29 06:17:21;;;;;;;4.77;3.13;;;;;20.60;96590.00;;;;5041594;28;20208;-72
2023/07/29 06:20:11;;;;;;;4.87;3.20;;;;;20.50;96580.00;;;;5027178;28;20197;-71
2023/07/29 06:23:00;;;;;;;3.93;3.53;;;;;20.70;96584.00;;;;5039217;28;20220;-71
2023/07/29 06:25:49;;;;;;;5.10;2.90;;;;;20.70;96588.00;;;;5038845;28;20201;-72
2023/07/29 06:28:38;;;;;;;6.87;2.90;;;;;20.80;96594.00;;;;5039595;28;20553;-72
2023/07/29 06:31:29;;;;;;;3.47;2.83;;;;;21.00;96596.00;;;;5038858;28;20778;-73
2023/07/29 06:34:18;;;;;;;3.17;2.73;;;;;21.10;96583.00;;;;5043594;28;20704;-72
2023/07/29 06:37:07;;;;;;;3.23;2.80;;;;;21.70;96577.00;;;;5045211;28;20201;-73
2023/07/29 06:39:56;;;;;;;3.80;3.23;;;;;22.10;96566.00;;;;5040613;28;20196;-72
2023/07/29 06:42:45;;;;;;;5.67;3.47;;;;;21.90;96571.00;;;;5045733;28;20223;-72
2023/07/29 06:45:34;;;;;;;3.77;3.30;;;;;22.80;96569.00;;;;5031930;28;20683;-72
2023/07/29 06:48:24;;;;;;;4.77;3.43;;;;;22.50;96575.00;;;;5040271;28;20205;-72
2023/07/29 06:51:13;;;;;;;5.30;4.03;;;;;22.50;96571.00;;;;5041826;28;20237;-71
2023/07/29 06:54:03;;;;;;;3.87;2.83;;;;;22.90;96576.00;;;;5048493;28;20741;-72
2023/07/29 06:56:52;;;;;;;3.93;2.77;;;;;23.00;96567.00;;;;5049190;28;20205;-73
2023/07/29 06:59:41;;;;;;;4.37;3.17;;;;;23.40;96563.00;;;;5048010;28;20228;-73
2023/07/29 07:02:30;;;;;;;5.67;3.00;;;;;23.40;96558.00;;;;5042322;28;20593;-74
2023/07/29 07:05:20;;;;;;;4.73;3.37;;;;;23.60;96561.00;;;;5038927;28;20205;-72
2023/07/29 07:08:10;;;;;;;3.43;2.60;;;;;23.70;96565.00;;;;5042690;28;20205;-72
2023/07/29 07:10:59;;;;;;;4.70;2.60;;;;;24.40;96560.00;;;;5047319;28;20203;-72
2023/07/29 07:13:48;;;;;;;4.43;2.97;;;;;25.00;96566.00;;;;5033676;28;20229;-72
2023/07/29 07:16:39;;;;;;;6.43;2.93;;;;;24.90;96556.00;;;;5040667;28;20197;-72
2023/07/29 07:19:28;;;;;;;4.80;2.80;;;;;25.30;96552.00;;;;5046134;28;20251;-72
2023/07/29 07:22:18;;;;;;;3.90;2.97;;;;;25.40;96550.00;;;;5042891;28;20201;-75
2023/07/29 07:25:08;;;;;;;3.47;3.17;;;;;25.60;96552.00;;;;5044248;28;20205;-73
2023/07/29 07:27:57;;;;;;;4.27;3.23;;;;;25.80;96546.00;;;;5040522;28;20199;-73
2023/07/29 07:30:46;;;;;;;3.00;2.70;;;;;26.10;96550.00;;;;5039934;28;20215;-71
2023/07/29 07:33:35;;;;;;;5.50;2.90;;;;;26.10;96554.00;;;;5038417;28;20232;-71
2023/07/29 07:36:24;;;;;;;5.53;3.33;;;;;26.30;96557.00;;;;5045805;28;20205;-72
2023/07/29 07:39:15;;;;;;;4.30;3.37;;;;;26.50;96552.00;;;;5043650;28;20296;-72
2023/07/29 07:42:04;;;;;;;5.23;3.03;;;;;26.60;96557.00;;;;5044987;28;20204;-72
2023/07/29 07:44:53;;;;;;;3.40;2.60;;;;;26.90;96558.00;;;;5039755;28;20204;-72
2023/07/29 07:47:42;;;;;;;5.27;2.73;;;;;26.70;96547.00;;;;5047219;28;20215;-72
2023/07/29 07:50:32;;;;;;;4.20;2.90;;;;;27.00;96549.00;;;;5043044;28;20202;-74
2023/07/29 07:53:21;;;;;;;6.60;3.40;;;;;27.10;96548.00;;;;5042181;28;20725;-75
2023/07/29 07:56:11;;;;;;;4.67;2.50;;;;;27.20;96555.00;;;;5041278;28;20219;-74
2023/07/29 07:59:00;;;;;;;3.67;2.70;;;;;27.50;96549.00;;;;5043965;28;20222;-74
2023/07/29 08:01:49;;;;;;;6.13;3.60;;;;;27.60;96550.00;;;;5037836;28;20201;-73
2023/07/29 08:04:38;;;;;;;2.73;2.23;;;;;27.40;96544.00;;;;5042728;28;20205;-73
2023/07/29 08:07:27;;;;;;;3.97;2.53;;;;;27.60;96545.00;;;;5038294;28;20206;-72
2023/07/29 08:10:16;;;;;;;5.47;3.40;;;;;28.10;96545.00;;;;5034428;28;20205;-73
2023/07/29 08:13:07;;;;;;;4.20;2.83;;;;;28.20;96542.00;;;;5043414;28;20222;-72
2023/07/29 08:15:56;;;;;;;3.30;2.70;;;;;28.10;96543.00;;;;5043030;28;20205;-72
2023/07/29 08:18:45;;;;;;;5.93;2.27;;;;;28.20;96540.00;;;;5044656;28;20234;-72
2023/07/29 08:21:34;;;;;;;3.17;2.10;;;;;28.60;96534.00;;;;5041294;28;20207;-75
2023/07/29 08:24:23;;;;;;;3.87;2.63;;;;;28.80;96527.00;;;;5043279;28;20581;-72
2023/07/29 08:27:12;;;;;;;3.60;2.33;;;;;29.00;96521.00;;;;5043720;28;20572;-72
2023/07/29 08:30:02;;;;;;;4.20;2.90;;;;;29.10;96520.00;;;;5039968;28;20201;-72
2023/07/29 08:32:52;;;;;;;2.93;2.20;;;;;29.10;96521.00;;;;5038093;28;20243;-72
2023/07/29 08:35:41;;;;;;;3.33;1.90;;;;;29.10;96514.00;;;;5041740;28;20207;-72
2023/07/29 08:38:30;;;;;;;2.03;1.90;;;;;28.80;96523.00;;;;5041845;28;20204;-72
2023/07/29 08:41:27;;;;;;;2.17;1.80;;;;;29.00;96522.00;;;;5046062;28;20205;-73
2023/07/29 08:44:22;;;;;;;2.23;1.90;;;;;29.00;96522.00;;;;5043257;28;20231;-72
2023/07/29 08:47:13;;;;;;;2.40;1.53;;;;;29.50;96522.00;;;;5045169;28;20209;-73
2023/07/29 08:50:04;;;;;;;3.03;2.03;;;;;29.80;96520.00;;;;5033804;28;20304;-72
2023/07/29 08:52:54;;;;;;;1.97;1.37;;;;;30.10;96512.00;;;;5029548;28;20225;-73
2023/07/29 08:55:43;;;;;;;3.83;1.87;;;;;29.70;96518.00;;;;5033575;28;20594;-72
2023/07/29 08:58:32;;;;;;;2.67;2.17;;;;;29.40;96506.00;;;;5043629;28;20205;-73
2023/07/29 09:01:21;;;;;;;2.30;2.00;;;;;30.10;96517.00;;;;5029717;28;20196;-72
2023/07/29 09:04:11;;;;;;;4.40;2.40;;;;;30.40;96517.00;;;;5041503;28;20606;-72
2023/07/29 09:07:01;;;;;;;2.60;1.73;;;;;29.50;96507.00;;;;5045437;28;20653;-72
2023/07/29 09:09:50;;;;;;;2.07;1.77;;;;;30.10;96513.00;;;;5045906;28;20223;-72
2023/07/29 09:12:39;;;;;;;1.63;1.47;;;;;30.10;96507.00;;;;5041903;28;20235;-72
2023/07/29 09:15:29;;;;;;;2.43;1.63;;;;;30.80;96508.00;;;;5035344;28;20202;-73
2023/07/29 09:18:20;;;;;;;3.10;2.07;;;;;31.00;96503.00;;;;5038202;28;20203;-72
2023/07/29 09:21:10;;;;;;;2.90;1.97;;;;;31.30;96515.00;;;;5040765;28;20251;-72
2023/07/29 09:23:59;;;;;;;2.30;1.90;;;;;31.60;96503.00;;;;5040861;28;20233;-72
2023/07/29 09:26:53;;;;;;;4.40;1.90;;;;;31.80;96502.00;;;;5042119;28;20206;-73
2023/07/29 09:29:42;;;;;;;2.27;2.07;;;;;31.70;96499.00;;;;5040466;28;20208;-72
2023/07/29 09:32:31;;;;;;;2.63;1.87;;;;;32.10;96493.00;;;;5043134;28;20221;-73
2023/07/29 09:35:20;;;;;;;2.60;2.00;;;;;31.70;96491.00;;;;5042979;28;20213;-73
2023/07/29 09:38:16;;;;;;;2.40;1.80;;;;;32.10;96491.00;;;;5039462;28;20198;-73
2023/07/29 09:41:05;;;;;;;4.10;2.10;;;;;32.20;96501.00;;;;5040026;28;20229;-73
2023/07/29 09:43:58;;;;;;;3.23;2.17;;;;;32.70;96501.00;;;;5033879;28;20588;-72
2023/07/29 09:46:48;;;;;;;4.70;2.10;;;;;32.70;96504.00;;;;5044287;28;20207;-73
2023/07/29 09:49:37;;;;;;;2.13;1.93;;;;;32.90;96496.00;;;;5034449;28;20258;-73
2023/07/29 09:52:26;;;;;;;2.00;1.83;;;;;33.20;96491.00;;;;5034247;28;20197;-72
2023/07/29 09:55:19;;;;;;;4.10;2.10;;;;;33.40;96492.00;;;;5032437;28;20201;-73
2023/07/29 09:58:08;;;;;;;3.15;2.10;;;;;32.70;96486.00;;;;5036001;28;20663;-74
2023/07/29 10:00:57;;;;;;;7.05;2.17;;;;;33.80;96480.00;;;;5039664;28;20220;-73
2023/07/29 10:03:46;;;;;;;3.17;1.92;;;;;33.40;96485.00;;;;5036460;28;20243;-74
2023/07/29 10:06:36;;;;;;;2.22;2.03;;;;;34.00;96485.00;;;;5040779;28;20211;-73
2023/07/29 10:09:26;;;;;;;3.80;1.98;;;;;33.80;96467.00;;;;5041235;28;20204;-73
2023/07/29 10:12:16;;;;;;;2.28;2.00;;;;;34.90;96471.00;;;;5038140;28;20240;-73
2023/07/29 10:15:08;;;;;;;3.85;2.00;;;30.80;89.70;35.40;96470.00;;;;5041857;28;20592;-74
2023/07/29 10:17:57;;;;;;;2.35;2.05;;;30.90;90.00;35.50;96464.00;;;;5037178;28;20211;-75
2023/07/29 10:20:47;;;;;;;1.80;1.70;;;31.30;88.70;35.10;96478.00;;;;5037170;28;20245;-74
2023/07/29 10:23:43;;;;;;;2.67;1.60;;;31.40;87.90;33.70;96489.00;;;;5039171;28;20228;-74
2023/07/29 10:26:34;;;;;;;4.55;2.40;;;31.20;85.90;33.90;96506.00;;;;5042056;28;20210;-74
2023/07/29 10:29:25;;;;;;;2.10;1.90;;;30.90;85.30;32.60;96510.00;;;;5033595;28;20709;-75
2023/07/29 10:32:15;;;;;;;2.10;1.90;;;30.60;85.00;32.70;96501.00;;;;5038032;28;20204;-73
2023/07/29 10:35:05;;;;;;;3.28;2.13;;;30.30;86.50;31.10;96464.00;;;;5035453;28;20195;-74
2023/07/29 10:37:54;;;;;;;2.22;2.03;;;29.70;84.50;32.60;96472.00;;;;5038261;28;20573;-75
2023/07/29 10:40:47;;;;;;;2.88;1.90;;;29.60;87.40;33.60;96462.00;;;;5044104;28;20604;-75
2023/07/29 10:43:38;;;;;;;2.65;2.05;;;29.80;86.70;33.50;96496.00;;;;5036261;28;20236;-74
2023/07/29 10:46:28;;;;;;;3.42;2.22;;;30.10;87.40;33.00;96460.00;;;;5036072;28;20206;-71
2023/07/29 10:49:25;;;;;;;3.83;2.08;;;29.90;84.10;34.40;96464.00;;;;5040092;28;20210;-72
2023/07/29 10:52:16;;;;;;;4.07;1.95;;;30.30;87.40;34.90;96462.00;;;;5039635;28;20204;-72
2023/07/29 10:55:24;;;;;;;2.53;2.00;;;30.70;86.80;35.60;96455.00;;;;5043359;28;20212;-73
2023/07/29 10:58:16;;;;;;;2.42;2.22;;;31.20;85.20;34.50;96445.00;;;;5034594;28;20196;-73
2023/07/29 11:01:14;;;;;;;2.10;1.65;;;31.50;79.10;34.00;96501.00;;;;5039858;28;20217;-73
2023/07/29 11:04:26;;;;;;;2.83;2.10;;;31.30;79.90;33.50;96503.00;;;;5072256;23;20249;-84
2023/07/29 11:07:29;;;;;;;3.72;2.47;;;30.90;78.30;33.40;96499.00;;;;5082032;28;20205;-85
2023/07/29 11:10:18;;;;;;;2.53;2.30;;;30.50;79.10;33.10;96498.00;;;;5082028;28;20198;-86
2023/07/29 11:13:07;;;;;;;2.60;1.60;;;30.20;78.30;33.00;96505.00;;;;5085890;28;20298;-84
2023/07/29 11:15:58;;;;;;;2.60;2.15;;;30.00;80.20;32.80;96494.00;;;;5083627;28;20214;-84
2023/07/29 11:18:48;;;;;;;3.40;2.10;;;29.80;80.90;32.20;96483.00;;;;5083628;28;20195;-84
2023/07/29 11:21:39;;;;;;;2.97;2.40;;;29.60;81.80;31.40;96474.00;;;;5086989;28;20226;-84
2023/07/29 11:24:28;;;;;;;2.42;2.20;;;29.10;82.70;32.00;96408.00;;;;5088730;28;20234;-84
2023/07/29 11:27:17;;;;;;;2.58;2.22;;;29.00;88.90;32.90;96422.00;;;;5078551;28;20263;-84
2023/07/29 11:30:09;;;;;;;3.17;2.20;;;29.30;87.80;33.40;96408.00;;;;5088331;28;20199;-86
2023/07/29 11:32:59;;;;;;;2.60;1.73;;;29.60;87.30;34.40;96410.00;;;;5087251;28;20216;-84
2023/07/29 11:35:48;;;;;;;2.40;2.13;;;30.00;85.10;34.70;96403.00;;;;5101220;22;20232;-74
2023/07/29 11:38:41;;;;;;;3.75;2.45;;;30.30;86.40;35.50;96414.00;;;;5063422;28;20193;-73
2023/07/29 11:41:30;;;;;;;3.72;2.50;;;;;36.00;96398.00;;;;5063096;28;20223;-73
2023/07/29 11:44:19;;;;;;;3.03;2.42;;;31.40;84.40;36.10;96395.00;;;;5052018;28;20596;-73
2023/07/29 11:47:08;;;;;;;3.15;2.42;;;31.80;83.20;34.30;96386.00;;;;5047028;28;20742;-78
2023/07/29 11:50:01;;;;;;;3.42;2.15;;;31.80;76.80;34.00;96385.00;;;;5043709;28;20198;-74
2023/07/29 11:52:50;;;;;;;4.30;2.20;;;31.50;79.00;34.00;96385.00;;;;5045810;28;20200;-73
2023/07/29 11:55:40;;;;;;;3.05;2.05;;;31.60;75.80;36.50;96369.00;;;;5043228;28;20203;-74
2023/07/29 11:58:29;;;;;;;2.30;2.10;;;31.90;79.20;36.40;96370.00;;;;5045000;28;20204;-74
2023/07/29 12:01:18;;;;;;;2.45;2.22;;;32.40;77.70;37.20;96375.00;;;;5038162;28;20236;-74
2023/07/29 12:04:07;;;;;;;1.95;1.75;;;32.80;77.20;38.10;96371.00;;;;5033253;28;20224;-75
2023/07/29 12:06:56;;;;;;;2.95;1.88;;;33.30;73.30;38.10;96372.00;;;;5036408;28;20673;-75
2023/07/29 12:09:46;;;;;;;4.03;2.20;;;33.80;72.60;38.70;96368.00;;;;5048468;28;20200;-73
2023/07/29 12:12:45;;;;;;;1.98;1.70;;;34.10;74.60;38.10;96433.00;;;;5045452;28;20722;-70
2023/07/29 12:15:33;;;;;;;2.72;2.10;;;34.30;73.60;36.70;96432.00;;;;5043009;28;20227;-75
2023/07/29 12:18:31;;;;;;;2.33;1.98;;;34.00;72.50;35.80;96435.00;;;;5044677;28;20201;-75
2023/07/29 12:21:21;;;;;;;5.80;2.42;;;33.40;70.60;35.60;96439.00;;;;5042648;28;20588;-74
2023/07/29 12:24:09;;;;;;;2.35;2.05;;;33.00;72.60;34.80;96443.00;;;;5043794;28;20684;-75
2023/07/29 12:26:58;;;;;;;2.22;2.00;;;32.60;70.60;34.30;96453.00;;;;5046135;28;20197;-74
2023/07/29 12:29:48;;;;;;;2.30;1.98;;;32.10;72.00;32.00;96466.00;;;;5040301;28;20192;-76
2023/07/29 12:32:45;;;;;;;2.08;1.85;;;31.30;76.20;31.10;96487.00;;;;5043208;28;20212;-70
2023/07/29 12:35:38;;;;;;;4.47;2.40;;;;;30.90;96497.00;;;;5038158;28;20215;-71
2023/07/29 12:38:29;;;;;;;4.22;2.40;;;29.30;90.40;30.50;96498.00;;;;5041438;28;20211;-72
2023/07/29 12:41:18;;;;;;;3.10;2.25;;;28.70;94.20;29.90;96503.00;;;;5043131;28;20226;-71
2023/07/29 12:44:07;;;;;;;2.67;2.45;;;28.30;93.70;29.60;96512.00;;;;5044121;28;20280;-73
2023/07/29 12:46:57;;;;;;;2.53;2.13;;;27.70;97.50;28.60;96529.00;;;;5038765;28;20206;-72
2023/07/29 12:49:46;;;;;;;3.00;1.50;;;27.20;99.60;26.90;96549.00;;;;5043888;28;20203;-70
2023/07/29 12:52:35;;;;;;;2.27;1.80;;;;;25.70;96534.00;;;;5043555;28;20210;-65
2023/07/29 12:55:24;;;;;;;3.10;1.90;;;;;26.10;96495.00;;;;5040278;28;20565;-69
2023/07/29 12:58:13;;;;;;;2.23;1.50;;;;;26.10;96471.00;;;;5045211;28;20207;-69
2023/07/29 13:01:02;;;;;;;2.03;1.50;;;;;26.10;96476.00;;;;5048087;28;20226;-71
2023/07/29 13:03:52;;;;;;;5.40;2.17;;;;;26.00;96485.00;;;;5041695;28;20224;-66
2023/07/29 13:06:41;;;;;;;2.87;1.50;;;;;27.20;96480.00;;;;5039268;28;20204;-66
2023/07/29 13:09:30;;;;;;;2.77;1.73;;;;;27.70;96472.00;;;;5041736;28;20826;-68
2023/07/29 13:12:20;;;;;;;4.07;1.80;;;;;29.30;96459.00;;;;5042394;28;20221;-68
2023/07/29 13:15:09;;;;;;;3.80;2.20;;;;;30.10;96460.00;;;;5040974;28;20689;-68
2023/07/29 13:17:58;;;;;;;2.87;2.10;;;26.20;99.90;31.00;96460.00;;;;5046825;28;20208;-69
2023/07/29 13:20:48;;;;;;;2.67;1.80;;;26.20;99.90;31.50;96455.00;;;;5041582;28;20572;-69
2023/07/29 13:23:37;;;;;;;3.20;2.10;;;26.80;99.90;32.30;96438.00;;;;5039757;28;20229;-69
2023/07/29 13:26:26;;;;;;;4.57;2.10;;;27.50;99.90;32.70;96432.00;;;;5039738;28;20191;-69
2023/07/29 13:29:16;;;;;;;5.07;1.65;;;28.20;99.90;33.10;96442.00;;;;5038995;28;20659;-69
2023/07/29 13:32:06;;;;;;;3.38;2.30;;;28.70;99.90;33.60;96439.00;;;;5038214;28;20208;-70
2023/07/29 13:34:55;;;;;;;3.30;1.77;;;29.10;99.90;33.20;96433.00;;;;5041468;28;20229;-70
2023/07/29 13:37:45;;;;;;;2.65;1.98;;;29.40;99.90;33.30;96442.00;;;;5042973;28;20214;-70
2023/07/29 13:40:34;;;;;;;2.03;1.65;;;29.60;99.90;33.60;96414.00;;;;5038954;28;20206;-70
2023/07/29 13:43:24;;;;;;;2.35;1.60;;;29.80;99.90;33.80;96424.00;;;;5045370;28;20362;-70
2023/07/29 13:46:12;;;;;;;2.75;2.00;;;30.10;99.90;34.30;96407.00;;;;5042710;28;20200;-69